Time;durP1;ratioP1;P1;durP2;ratioP2;P2;SDS_P1;SDS_P2;PMS_P1;PMS_P2;Temp;Humidity;BMP_temperature;BMP_pressure;BME280_temperature;BME280_humidity;BME280_pressure;Samples;Min_cycle;Max_cycle;Signal;HPM_P1;HPM_P2
2022/08/12 00:43:13;;;;;;;;;;;17.00;99.90;;;15.95;68.80;95824.78;10382579;28;1973;-62
2022/08/12 00:48:15;;;;;;;;;;;16.90;99.90;;;15.93;69.38;95833.22;10391260;28;1929;-62
2022/08/12 00:53:18;;;;;;;;;;;16.80;99.90;;;15.89;69.38;95823.28;10397886;28;2170;-62
2022/08/12 00:58:22;;;;;;;;;;;16.80;99.90;;;15.74;70.54;95823.66;10405843;28;1963;-62
2022/08/12 01:03:25;;;;;;;;;;;16.50;99.90;;;15.80;70.21;95808.88;10383715;28;1915;-61
2022/08/12 01:13:54;;;;;;;;;;;16.60;99.90;;;15.70;71.42;95811.81;10400296;28;1976;-64
2022/08/12 01:18:59;;;;;;;;;;;16.60;99.90;;;15.74;71.32;95818.22;10397527;28;2046;-63
2022/08/12 01:24:17;;;;;;;;;;;16.60;99.90;;;15.61;72.23;95809.78;10382840;28;1948;-62
2022/08/12 01:29:34;;;;;;;;;;;16.50;99.90;;;15.61;72.14;95815.22;10382705;28;2059;-63
2022/08/12 01:34:38;;;;;;;;;;;16.50;99.90;;;15.60;72.70;95818.25;10398539;28;2033;-63
2022/08/12 01:39:48;;;;;;;;;;;16.40;99.90;;;15.44;73.38;95820.47;10371320;28;2004;-62
2022/08/12 01:45:28;;;;;;;;;;;16.40;99.90;;;15.44;73.93;95817.75;10383616;28;1935;-63
2022/08/12 01:51:05;;;;;;;;;;;16.30;99.90;;;15.55;73.38;95805.59;10398187;28;2022;-63
2022/08/12 01:56:18;;;;;;;;;;;16.40;99.90;;;15.47;73.45;95808.22;10375440;28;2044;-62
2022/08/12 02:01:21;;;;;;;;;;;16.40;99.90;;;15.39;74.23;95805.09;10395023;28;1969;-62
2022/08/12 02:11:45;;;;;;;;;;;16.30;99.90;;;15.36;74.54;95804.94;10376945;28;2439;-62
2022/08/12 02:16:50;;;;;;;;;;;16.20;99.90;;;15.26;75.10;95803.22;10376567;28;2135;-62
2022/08/12 02:21:53;;;;;;;;;;;16.10;99.90;;;15.18;76.07;95795.00;10403797;28;2022;-62
2022/08/12 02:26:56;;;;;;;;;;;16.10;99.90;;;14.99;77.12;95797.81;10385737;28;1996;-60
2022/08/12 02:31:59;;;;;;;;;;;16.00;99.90;;;14.81;78.20;95796.81;10371293;28;2000;-62
2022/08/12 02:37:02;;;;;;;;;;;15.80;99.90;;;15.06;77.52;95788.19;10381771;28;1995;-64
2022/08/12 02:42:06;;;;;;;;;;;15.80;99.90;;;14.85;78.42;95778.88;10377814;28;1983;-62
2022/08/12 02:47:10;;;;;;;;;;;15.80;99.90;;;15.06;77.84;95771.94;10378919;28;2041;-62
2022/08/12 02:52:33;;;;;;;;;;;15.80;99.90;;;14.97;78.17;95781.88;10391613;28;2125;-62
2022/08/12 02:57:36;;;;;;;;;;;15.90;99.90;;;15.07;77.80;95776.25;10380845;28;2049;-63
2022/08/12 03:02:39;;;;;;;;;;;15.90;99.90;;;14.99;78.23;95784.28;10391927;28;1966;-63
2022/08/12 03:07:43;;;;;;;;;;;16.00;99.90;;;15.17;78.00;95782.56;10387840;28;2081;-63
2022/08/12 03:13:02;;;;;;;;;;;16.00;99.90;;;15.08;78.65;95777.88;10394717;28;1992;-63
2022/08/12 03:18:05;;;;;;;;;;;16.00;99.90;;;14.90;79.78;95773.38;10376417;28;1905;-62
2022/08/12 03:23:28;;;;;;;;;;;15.80;99.90;;;15.02;79.00;95784.50;10390895;28;1995;-62
2022/08/12 03:28:52;;;;;;;;;;;15.80;99.90;;;14.77;79.41;95776.88;10397438;28;2028;-61
2022/08/12 03:33:56;;;;;;;;;;;15.80;99.90;;;14.78;79.98;95783.88;10392977;28;1982;-63
2022/08/12 04:00:41;;;;;;;;;;;15.40;99.90;;;14.54;81.13;95782.16;10392200;28;2016;-62
2022/08/12 04:05:44;;;;;;;;;;;15.40;99.90;;;14.65;80.46;95771.16;10389258;28;2309;-61
2022/08/12 04:16:21;;;;;;;;;;;15.50;99.90;;;14.67;80.81;95768.94;10390395;28;1984;-62
2022/08/12 04:21:24;;;;;;;;;;;15.40;99.90;;;14.90;80.26;95772.56;10393608;28;1945;-63
2022/08/12 04:26:28;;;;;;;;;;;15.60;99.90;;;14.87;80.37;95780.16;10395439;28;1998;-62
2022/08/12 04:31:31;;;;;;;;;;;15.60;99.90;;;14.93;80.22;95783.56;10391209;28;2000;-61
2022/08/12 04:36:34;;;;;;;;;;;15.70;99.90;;;14.71;81.48;95795.09;10368017;28;2016;-62
2022/08/12 04:41:39;;;;;;;;;;;15.70;99.90;;;15.29;79.38;95789.09;10397974;28;2088;-62
2022/08/12 04:47:00;;;;;;;;;;;15.80;99.90;;;15.41;78.51;95780.44;10392989;28;1931;-62
2022/08/12 04:52:04;;;;;;;;;;;16.00;99.90;;;15.68;76.26;95788.53;10388853;28;1920;-62
2022/08/12 04:57:08;;;;;;;;;;;16.30;99.90;;;15.77;75.67;95794.00;10372702;28;2000;-62
2022/08/12 05:02:11;;;;;;;;;;;16.30;99.90;;;15.78;74.90;95794.84;10375562;28;1965;-62
2022/08/12 05:07:22;;;;;;;;;;;16.50;99.90;;;16.10;72.51;95794.63;10372129;28;1940;-63
2022/08/12 05:12:26;;;;;;;;;;;16.70;99.90;;;16.54;71.77;95798.41;10381374;28;1724;-61
2022/08/12 05:17:29;;;;;;;;;;;17.00;99.90;;;16.34;70.88;95809.75;10370231;28;2165;-63
2022/08/12 05:22:33;;;;;;;;;;;17.20;99.90;;;16.82;68.82;95806.41;10390793;28;2306;-63
2022/08/12 05:27:38;;;;;;;;;;;17.40;99.90;;;16.45;69.96;95797.56;10370884;28;1985;-62
2022/08/12 05:32:59;;;;;;;;;;;17.60;99.90;;;17.10;68.29;95807.00;10383278;28;2008;-62
2022/08/12 05:43:23;;;;;;;;;;;17.90;99.90;;;16.88;67.10;95816.81;10398610;28;1913;-62
2022/08/12 05:48:29;;;;;;;;;;;17.80;99.90;;;17.55;65.07;95813.03;10393578;28;1932;-61
2022/08/12 05:53:33;;;;;;;;;;;18.00;99.90;;;17.48;64.60;95818.13;10393997;28;1968;-62
2022/08/12 05:58:36;;;;;;;;;;;18.20;99.90;;;17.42;65.28;95822.13;10371007;28;1874;-62
2022/08/12 06:03:41;;;;;;;;;;;18.20;99.90;;;17.45;65.27;95813.34;10377462;28;1984;-61
2022/08/12 06:08:47;;;;;;;;;;;18.10;99.90;;;17.47;64.11;95819.25;10394776;28;1917;-62
2022/08/12 06:13:50;;;;;;;;;;;18.30;99.90;;;17.87;61.99;95805.59;10384701;28;1971;-63
2022/08/12 06:18:56;;;;;;;;;;;18.40;99.90;;;17.91;62.44;95810.09;10377825;28;2028;-62
2022/08/12 06:24:00;;;;;;;;;;;18.60;99.90;;;17.97;62.07;95802.56;10373504;28;1977;-63
2022/08/12 06:29:03;;;;;;;;;;;18.70;99.90;;;18.46;61.27;95800.47;10384119;28;2019;-62
2022/08/12 06:34:07;;;;;;;;;;;18.90;99.90;;;18.63;59.19;95803.13;10392924;28;2153;-62
2022/08/12 06:39:30;;;;;;;;;;;19.20;99.90;;;18.72;58.19;95806.66;10368393;28;1926;-63
2022/08/12 06:44:33;;;;;;;;;;;19.40;99.90;;;19.28;57.85;95804.69;10386639;28;2040;-63
2022/08/12 06:49:36;;;;;;;;;;;19.60;99.90;;;19.37;55.98;95813.63;10374648;28;1913;-63
2022/08/12 06:54:40;;;;;;;;;;;19.90;99.90;;;19.20;57.21;95805.53;10392847;28;2020;-62
2022/08/12 06:59:43;;;;;;;;;;;20.00;99.90;;;19.52;55.98;95814.19;10379225;28;1968;-62
2022/08/12 07:04:46;;;;;;;;;;;20.00;99.90;;;19.63;55.19;95797.13;10371052;28;1882;-62
2022/08/12 07:09:50;;;;;;;;;;;20.10;99.90;;;19.62;55.02;95803.72;10392957;28;1944;-62
2022/08/12 07:15:10;;;;;;;;;;;20.20;99.90;;;19.96;53.41;95802.69;10379858;28;1899;-63
2022/08/12 07:20:15;;;;;;;;;;;20.50;99.90;;;19.66;53.63;95801.16;10382824;28;2002;-62
2022/08/12 07:25:38;;;;;;;;;;;20.50;99.90;;;19.83;54.05;95803.75;10382659;28;1943;-61
2022/08/12 07:30:44;;;;;;;;;;;20.50;99.90;;;20.01;54.52;95809.06;10385563;28;1951;-62
2022/08/12 07:35:46;;;;;;;;;;;20.70;99.90;;;20.48;54.37;95812.38;10377566;28;1918;-62
2022/08/12 07:40:50;;;;;;;;;;;21.00;99.90;;;19.98;54.70;95811.34;10387324;28;1916;-63
2022/08/12 07:45:54;;;;;;;;;;;20.90;99.90;;;20.40;53.54;95810.50;10393767;28;1965;-63
2022/08/12 07:50:58;;;;;;;;;;;21.00;99.90;;;20.10;53.44;95816.06;10370910;28;1912;-63
2022/08/12 07:56:00;;;;;;;;;;;21.00;99.90;;;20.01;55.29;95811.81;10392391;28;2032;-62
2022/08/12 08:01:04;;;;;;;;;;;20.90;99.90;;;20.89;52.53;95806.03;10382009;28;1908;-62
2022/08/12 08:06:15;;;;;;;;;;;21.20;99.90;;;20.95;51.29;95807.41;10385357;28;1952;-62
2022/08/12 08:16:44;;;;;;;;;;;21.90;99.90;;;20.63;50.79;95808.25;10386875;28;1999;-61
2022/08/12 08:21:48;;;;;;;;;;;21.70;99.90;;;20.39;50.72;95817.09;10385528;28;1928;-62
2022/08/12 08:26:50;;;;;;;;;;;21.60;99.90;;;20.61;49.76;95813.22;10360283;28;1893;-63
2022/08/12 08:31:56;;;;;;;;;;;21.50;99.90;;;20.80;49.26;95816.22;10382909;28;2040;-63
2022/08/12 08:36:58;;;;;;;;;;;21.70;99.90;;;20.84;48.57;95817.16;10357624;28;1924;-72
2022/08/12 08:47:38;;;;;;;;;;;21.80;99.90;;;20.59;49.44;95812.78;10350031;28;1848;-72
2022/08/12 08:52:41;;;;;;;;;;;21.70;99.90;;;21.04;48.83;95808.09;10371699;28;1938;-73
2022/08/12 08:57:44;;;;;;;;;;;21.80;99.90;;;21.14;48.51;95811.53;10382890;28;1967;-72
2022/08/12 09:02:47;;;;;;;;;;;22.00;99.90;;;21.65;47.23;95801.88;10360330;28;2007;-71
2022/08/12 09:08:01;;;;;;;;;;;22.30;99.90;;;21.23;47.87;95828.63;10375217;28;2059;-71
2022/08/12 09:13:33;;;;;;;;;;;22.40;99.40;;;21.27;47.89;95826.81;10387841;28;1947;-71
2022/08/12 09:18:56;;;;;;;;;;;22.10;99.90;;;21.52;47.02;95820.22;10386574;28;1976;-72
2022/08/12 09:24:02;;;;;;;;;;;22.30;99.70;;;21.22;46.74;95813.34;10383743;28;1886;-72
2022/08/12 09:29:09;;;;;;;;;;;22.40;98.10;;;21.63;45.98;95812.38;10389227;28;1980;-72
2022/08/12 09:34:14;;;;;;;;;;;22.50;98.70;;;21.85;45.74;95827.50;10393768;28;1943;-73
2022/08/12 09:39:39;;;;;;;;;;;22.70;98.40;;;21.53;46.41;95816.34;10389873;28;1953;-72
2022/08/12 09:50:26;;;;;;;;;;;22.40;98.60;;;22.12;45.41;95815.81;10366704;28;1870;-71
2022/08/12 09:55:31;;;;;;;;;;;22.70;98.60;;;22.24;43.67;95809.53;10374201;28;1978;-69
2022/08/12 10:00:55;;;;;;;;;;;23.00;96.60;;;22.03;43.88;95803.41;10378172;28;2040;-69
2022/08/12 10:05:58;;;;;;;;;;;22.90;96.40;;;22.01;44.46;95814.72;10379294;28;2218;-69
2022/08/12 10:17:05;;;;;;;;;;;23.10;96.50;;;22.80;43.39;95786.78;10391460;28;1976;-70
2022/08/12 10:22:13;;;;;;;;;;;23.30;96.70;;;22.22;43.08;95800.06;10393336;28;2114;-68
2022/08/12 10:33:07;;;;;;;;;;;23.20;95.10;;;22.56;42.13;95798.66;10387876;28;1908;-69
2022/08/12 10:38:21;;;;;;;;;;;23.30;94.90;;;22.18;42.99;95794.47;10391028;28;1961;-69
2022/08/12 10:43:41;;;;;;;;;;;23.20;94.80;;;21.98;43.59;95796.22;10373453;28;1907;-69
2022/08/12 10:48:57;;;;;;;;;;;23.10;95.20;;;22.47;42.67;95796.09;10388066;28;1983;-68
2022/08/12 10:54:20;;;;;;;;;;;23.30;95.10;;;22.77;41.96;95782.78;10387959;28;1954;-69
2022/08/12 10:59:29;;;;;;;;;;;23.60;94.60;;;22.73;40.89;95772.91;10381123;28;2005;-70
2022/08/12 11:04:58;;;;;;;;;;;23.70;93.10;;;22.70;41.25;95776.34;10385861;28;1931;-69
2022/08/12 11:10:21;;;;;;;;;;;23.70;93.00;;;23.32;40.97;95763.84;10390588;28;1943;-70
2022/08/12 11:15:28;;;;;;;;;;;24.10;93.80;;;23.71;38.67;95757.31;10373489;28;2033;-70
2022/08/12 11:20:53;;;;;;;;;;;25.40;90.40;;;23.14;38.53;95746.94;10392242;28;1945;-70
2022/08/12 11:25:59;;;;;;;;;;;24.80;89.00;;;23.03;39.90;95752.19;10400232;28;1968;-70
2022/08/12 11:31:07;;;;;;;;;;;24.20;91.30;;;23.10;37.19;95755.09;10391179;28;1910;-70
2022/08/12 11:36:14;;;;;;;;;;;24.10;88.80;;;23.39;37.54;95736.56;10397686;28;1965;-71
2022/08/12 11:41:17;;;;;;;;;;;24.10;89.10;;;23.70;37.35;95728.28;10397889;28;2008;-71
2022/08/12 11:46:34;;;;;;;;;;;24.50;89.20;;;23.16;37.43;95734.50;10374947;28;1990;-72
2022/08/12 11:51:38;;;;;;;;;;;24.30;88.00;;;23.32;37.03;95730.94;10369920;28;1983;-72
2022/08/12 11:56:41;;;;;;;;;;;24.30;88.10;;;23.70;35.74;95725.56;10390880;28;1933;-71
2022/08/12 12:02:01;;;;;;;;;;;24.50;87.30;;;23.92;34.93;95720.50;10389292;28;1833;-71
2022/08/12 12:07:07;;;;;;;;;;;24.80;85.80;;;23.17;34.98;95710.59;10371262;28;1880;-72
2022/08/12 12:12:13;;;;;;;;;;;24.40;84.90;;;23.71;35.16;95721.66;10390947;28;1854;-72
2022/08/12 12:17:17;;;;;;;;;;;24.50;85.90;;;23.89;35.02;95710.25;10392439;28;1919;-72
2022/08/12 12:22:21;;;;;;;;;;;24.70;86.00;;;24.25;35.29;95707.06;10369203;28;1862;-72
2022/08/12 12:27:28;;;;;;;;;;;25.10;86.40;;;24.22;34.82;95710.53;10385440;28;1821;-72
2022/08/12 12:32:52;;;;;;;;;;;24.90;85.70;;;24.35;33.15;95711.19;10385872;28;1903;-71
2022/08/12 12:37:55;;;;;;;;;;;25.20;83.70;;;24.26;31.65;95691.38;10374643;28;1910;-72
2022/08/12 12:43:07;;;;;;;;;;;25.10;81.70;;;23.95;34.94;95689.59;10383095;28;1755;-72
2022/08/12 12:48:11;;;;;;;;;;;25.10;84.60;;;24.25;35.41;95687.84;10402162;28;1805;-71
2022/08/12 12:53:20;;;;;;;;;;;25.10;85.80;;;23.84;35.45;95677.59;10396485;28;1862;-71
2022/08/12 12:58:44;;;;;;;;;;;24.90;85.60;;;24.08;33.99;95669.06;10394397;28;1892;-71
2022/08/12 13:03:52;;;;;;;;;;;24.90;84.60;;;24.28;33.57;95672.59;10384200;28;1801;-71
2022/08/12 13:08:57;;;;;;;;;;;25.10;83.90;;;23.79;34.47;95672.38;10386664;28;1830;-72
2022/08/12 13:14:05;;;;;;;;;;;24.90;84.10;;;24.56;33.92;95671.53;10395653;28;2000;-72
2022/08/12 13:19:15;;;;;;;;;;;25.10;84.70;;;24.34;33.39;95676.66;10377520;28;1903;-71
2022/08/12 13:24:25;;;;;;;;;;;25.30;83.20;;;23.98;34.40;95664.97;10398971;28;1833;-71
2022/08/12 13:29:35;;;;;;;;;;;25.10;83.70;;;24.53;34.04;95656.56;10399990;28;1753;-72
2022/08/12 13:34:38;;;;;;;;;;;25.30;84.10;;;24.47;33.40;95663.53;10376769;28;1848;-70
2022/08/12 13:39:43;;;;;;;;;;;25.30;83.00;;;24.44;32.72;95647.78;10395859;28;2185;-72
2022/08/12 13:44:46;;;;;;;;;;;25.20;82.30;;;24.35;32.54;95647.22;10406873;28;1901;-71
2022/08/12 13:49:55;;;;;;;;;;;25.30;82.00;;;24.64;31.97;95654.03;10400506;28;1901;-72
2022/08/12 13:54:58;;;;;;;;;;;25.30;81.80;;;24.49;31.64;95652.97;10404027;28;1950;-71
2022/08/12 14:00:01;;;;;;;;;;;25.40;80.70;;;24.20;31.19;95648.91;10377983;28;1860;-70
2022/08/12 14:05:08;;;;;;;;;;;25.10;80.10;;;24.30;31.39;95650.25;10380581;28;1842;-71
2022/08/12 14:10:37;;;;;;;;;;;25.10;80.10;;;24.26;31.80;95642.75;10375399;28;1863;-71
2022/08/12 14:15:52;;;;;;;;;;;25.10;80.60;;;24.55;31.65;95640.50;10394395;28;1992;-71
2022/08/12 14:20:57;;;;;;;;;;;25.30;80.50;;;24.75;31.73;95636.56;10378314;28;1862;-71
2022/08/12 14:26:01;;;;;;;;;;;25.50;80.80;;;24.97;30.56;95632.16;10379613;28;1782;-72
2022/08/12 14:31:06;;;;;;;;;;;25.70;79.40;;;24.91;31.65;95632.84;10393143;28;1869;-70
2022/08/12 14:36:25;;;;;;;;;;;25.80;80.00;;;24.49;31.12;95637.31;10395901;28;1906;-70
2022/08/12 14:41:29;;;;;;;;;;;25.80;79.00;;;24.43;30.83;95624.19;10391981;28;1868;-72
2022/08/12 14:46:57;;;;;;;;;;;25.40;79.00;;;24.50;30.42;95636.13;10393337;28;2230;-71
2022/08/12 14:52:01;;;;;;;;;;;25.50;78.20;;;24.61;29.83;95639.03;10394553;28;1916;-70
2022/08/12 14:57:23;;;;;;;;;;;25.60;78.00;;;24.48;30.24;95643.13;10393452;28;1902;-72
2022/08/12 15:02:46;;;;;;;;;;;25.40;78.20;;;24.74;30.86;95632.19;10384189;28;1881;-72
2022/08/12 15:07:51;;;;;;;;;;;25.50;79.00;;;24.65;31.14;95637.16;10373739;28;1788;-71
2022/08/12 15:13:06;;;;;;;;;;;25.50;79.10;;;25.13;30.64;95634.81;10367469;28;1862;-71
2022/08/12 15:18:09;;;;;;;;;;;25.70;79.20;;;25.14;30.77;95630.91;10392951;28;1957;-72
2022/08/12 15:23:15;;;;;;;;;;;25.90;78.80;;;25.63;30.78;95626.41;10395655;28;1769;-71
2022/08/12 15:28:23;;;;;;;;;;;26.20;79.60;;;24.79;31.77;95626.38;10366809;28;2183;-71
2022/08/12 15:33:27;;;;;;;;;;;25.90;79.30;;;24.38;31.90;95627.28;10395494;28;2186;-71
2022/08/12 15:38:48;;;;;;;;;;;25.70;78.90;;;24.37;31.42;95639.44;10376994;28;1910;-71
2022/08/12 15:43:55;;;;;;;;;;;25.20;79.20;;;24.27;31.72;95633.34;10376592;28;1880;-71
2022/08/12 15:49:19;;;;;;;;;;;25.20;79.60;;;24.53;31.72;95629.91;10389775;28;1707;-70
2022/08/12 15:54:22;;;;;;;;;;;25.20;80.10;;;24.50;32.09;95629.84;10372808;28;1934;-70
2022/08/12 15:59:37;;;;;;;;;;;25.20;80.40;;;24.03;33.83;95639.16;10371614;28;1982;-71
2022/08/12 16:05:00;;;;;;;;;;;25.10;81.50;;;23.87;34.24;95642.00;10366282;28;1829;-69
2022/08/12 16:10:23;;;;;;;;;;;24.80;82.40;;;23.32;35.24;95659.63;10388285;28;1837;-72
2022/08/12 16:15:36;;;;;;;;;;;24.30;82.90;;;22.63;37.42;95667.34;10392603;28;1952;-70
2022/08/12 16:20:44;;;;;;;;;;;23.70;84.90;;;23.12;37.30;95651.34;10392870;28;1845;-71
2022/08/12 16:25:50;;;;;;;;;;;23.80;86.10;;;22.94;37.70;95666.59;10388968;28;1899;-71
2022/08/12 16:31:08;;;;;;;;;;;23.90;86.50;;;22.53;38.93;95657.75;10389004;28;1845;-71
2022/08/12 16:36:16;;;;;;;;;;;23.50;87.40;;;22.28;39.42;95659.03;10367205;28;1915;-71
2022/08/12 16:41:20;;;;;;;;;;;23.20;87.80;;;22.05;40.25;95665.03;10390626;28;1802;-72
2022/08/12 16:46:24;;;;;;;;;;;23.00;88.40;;;22.13;41.12;95650.44;10382493;28;1838;-71
2022/08/12 16:51:35;;;;;;;;;;;22.90;89.70;;;22.08;41.47;95661.63;10371851;28;1900;-71
2022/08/12 16:56:43;;;;;;;;;;;22.90;90.20;;;21.79;42.16;95659.25;10372476;28;1982;-72
2022/08/12 17:01:59;;;;;;;;;;;22.70;90.70;;;21.66;43.07;95660.44;10373413;28;1810;-71
2022/08/12 17:07:02;;;;;;;;;;;22.50;91.60;;;21.43;43.62;95647.25;10390721;28;1838;-71
2022/08/12 17:12:05;;;;;;;;;;;22.40;92.20;;;21.55;42.90;95647.22;10374609;28;1835;-71
2022/08/12 17:17:08;;;;;;;;;;;22.40;91.90;;;21.55;42.31;95651.91;10377051;28;2001;-73
2022/08/12 17:22:32;;;;;;;;;;;22.40;91.00;;;21.48;42.06;95652.50;10385023;28;1901;-71
2022/08/12 17:27:39;;;;;;;;;;;22.40;91.10;;;21.44;41.76;95646.16;10380685;28;1875;-70
2022/08/12 17:32:43;;;;;;;;;;;22.30;90.40;;;21.42;42.05;95645.66;10383085;28;1843;-72
2022/08/12 17:37:56;;;;;;;;;;;22.30;90.70;;;21.28;42.45;95650.69;10380630;28;1906;-71
2022/08/12 17:43:00;;;;;;;;;;;22.20;91.00;;;21.17;42.93;95664.03;10382314;28;1891;-72
2022/08/12 17:48:09;;;;;;;;;;;22.10;91.50;;;21.08;43.12;95671.56;10399839;28;1845;-71
2022/08/12 17:53:15;;;;;;;;;;;22.00;91.70;;;20.92;44.35;95679.66;10402003;28;1813;-70
2022/08/12 17:58:28;;;;;;;;;;;21.90;92.80;;;20.71;44.56;95677.03;10383634;28;2005;-70
2022/08/12 18:03:41;;;;;;;;;;;21.70;93.10;;;20.56;44.93;95679.66;10380674;28;1887;-71
2022/08/12 18:09:05;;;;;;;;;;;21.50;93.30;;;20.42;45.60;95679.91;10382161;28;1846;-72
2022/08/12 18:14:11;;;;;;;;;;;21.40;93.90;;;20.25;46.22;95676.25;10385117;28;1860;-72
2022/08/12 18:19:24;;;;;;;;;;;21.20;94.40;;;20.09;47.03;95674.50;10391736;28;1918;-71
2022/08/12 18:24:36;;;;;;;;;;;21.10;95.10;;;19.96;47.69;95682.63;10373228;28;1936;-70
2022/08/12 18:29:40;;;;;;;;;;;20.90;95.70;;;19.82;48.53;95684.88;10381616;28;2021;-72
2022/08/12 18:34:45;;;;;;;;;;;20.80;96.40;;;19.60;49.47;95690.69;10371225;28;1894;-71
2022/08/12 18:45:18;;;;;;;;;;;20.50;97.90;;;19.41;50.98;95691.91;10358777;28;1834;-69
2022/08/12 18:50:23;;;;;;;;;;;20.40;98.50;;;19.17;52.10;95695.28;10371585;28;1874;-69
2022/08/12 18:55:28;;;;;;;;;;;20.30;99.00;;;19.17;52.17;95695.28;10373635;28;1850;-70
2022/08/12 19:00:39;;;;;;;;;;;20.10;99.50;;;19.07;52.89;95695.63;10375614;28;1895;-71
2022/08/12 19:05:45;;;;;;;;;;;20.10;99.90;;;18.89;53.97;95697.69;10395219;28;1853;-70
2022/08/12 19:14:23;;;;;;;;;;;19.90;99.90;;;18.73;55.00;95696.63;10370739;28;1904;-71
2022/08/12 19:16:24;;;;;;;;;;;19.80;99.90;;;18.62;56.25;95695.34;10394902;28;1906;-72
2022/08/12 19:21:29;;;;;;;;;;;19.70;99.90;;;18.48;57.08;95695.56;10373435;28;1774;-72
2022/08/12 19:26:33;;;;;;;;;;;19.60;99.90;;;18.23;58.78;95693.72;10394842;28;1807;-71
2022/08/12 19:31:45;;;;;;;;;;;19.40;99.90;;;18.16;59.75;95694.22;10379464;28;1969;-71
2022/08/12 19:37:03;;;;;;;;;;;19.30;99.90;;;18.05;60.42;95690.25;10380174;28;2024;-71
2022/08/12 19:42:05;;;;;;;;;;;19.10;99.90;;;17.92;61.81;95693.94;10377677;28;1833;-73
2022/08/12 19:47:10;;;;;;;;;;;19.00;99.90;;;17.85;62.78;95694.44;10378936;28;1929;-71
2022/08/12 19:52:20;;;;;;;;;;;19.00;99.90;;;17.75;63.80;95701.00;10400954;28;1825;-70
2022/08/12 19:57:22;;;;;;;;;;;18.90;99.90;;;17.74;64.66;95704.81;10390151;28;1899;-70
2022/08/12 20:02:30;;;;;;;;;;;18.80;99.90;;;17.66;65.34;95702.09;10374597;28;1921;-71
2022/08/12 20:07:34;;;;;;;;;;;18.70;99.90;;;17.50;66.92;95707.22;10389273;28;1697;-72
2022/08/12 20:12:45;;;;;;;;;;;18.60;99.90;;;17.41;68.65;95711.81;10364103;28;1833;-71
2022/08/12 20:18:09;;;;;;;;;;;18.50;99.90;;;17.40;69.27;95710.25;10374075;28;1987;-70
2022/08/12 20:23:36;;;;;;;;;;;18.40;99.90;;;17.34;69.85;95714.22;10375394;28;1868;-70
2022/08/12 20:28:59;;;;;;;;;;;18.30;99.90;;;17.35;69.53;95702.22;10383118;28;1835;-71
2022/08/12 20:34:01;;;;;;;;;;;18.20;99.90;;;17.25;70.41;95704.16;10377444;28;1810;-71
2022/08/12 20:39:04;;;;;;;;;;;18.20;99.90;;;17.20;70.07;95701.59;10394871;28;1950;-71
2022/08/12 20:44:27;;;;;;;;;;;18.10;99.90;;;17.06;70.12;95703.63;10376843;28;1802;-71
2022/08/12 20:49:31;;;;;;;;;;;18.00;99.90;;;17.03;70.04;95706.97;10389703;28;1905;-71
2022/08/12 20:54:39;;;;;;;;;;;18.00;99.90;;;16.95;70.74;95705.84;10394333;28;1923;-70
2022/08/12 20:59:42;;;;;;;;;;;17.90;99.90;;;16.90;71.07;95707.91;10393722;28;1963;-71
2022/08/12 21:10:22;;;;;;;;;;;17.80;99.90;;;16.72;72.88;95707.03;10393158;28;1800;-71
2022/08/12 21:15:29;;;;;;;;;;;17.70;99.90;;;16.64;74.03;95708.59;10369552;28;1905;-74
2022/08/12 21:20:53;;;;;;;;;;;17.60;99.90;;;16.49;75.19;95703.59;10394682;28;1918;-71
2022/08/12 21:25:57;;;;;;;;;;;17.60;99.90;;;16.50;76.36;95705.19;10395050;28;1912;-72
2022/08/12 21:31:04;;;;;;;;;;;17.40;99.90;;;16.45;76.82;95699.88;10396391;28;1795;-72
2022/08/12 21:36:30;;;;;;;;;;;17.40;99.90;;;16.39;77.81;95695.69;10401720;28;1764;-70
2022/08/12 21:41:39;;;;;;;;;;;17.40;99.90;;;16.33;78.63;95694.25;10394343;28;1906;-73
2022/08/12 21:46:46;;;;;;;;;;;17.20;99.90;;;16.24;78.72;95698.84;10396085;28;1773;-71
2022/08/12 21:51:56;;;;;;;;;;;17.20;99.90;;;16.19;79.22;95697.84;10381576;28;1723;-71
2022/08/12 21:56:59;;;;;;;;;;;17.20;99.90;;;16.14;80.41;95697.97;10381858;28;1914;-71
2022/08/12 22:02:03;;;;;;;;;;;17.10;99.90;;;16.01;81.84;95704.28;10386172;28;1764;-71
2022/08/12 22:07:33;;;;;;;;;;;17.00;99.90;;;15.93;82.60;95696.88;10388591;28;1814;-71
2022/08/12 22:12:57;;;;;;;;;;;16.90;99.90;;;15.82;83.71;95696.34;10377154;28;1881;-71
2022/08/12 22:18:06;;;;;;;;;;;16.90;99.90;;;15.77;84.27;95691.03;10396478;28;1918;-71
2022/08/12 22:23:11;;;;;;;;;;;16.70;99.90;;;15.77;84.39;95692.94;10372008;28;1828;-71
2022/08/12 22:33:50;;;;;;;;;;;16.90;99.90;;;15.78;84.89;95689.16;10400781;28;1889;-71
2022/08/12 22:39:01;;;;;;;;;;;16.60;99.90;;;15.66;85.43;95679.66;10384655;28;1910;-71
2022/08/12 22:49:25;;;;;;;;;;;16.60;99.90;;;15.64;86.80;95673.72;10397593;28;1842;-72
2022/08/12 22:54:49;;;;;;;;;;;16.60;99.90;;;15.62;87.37;95664.31;10398815;28;1884;-71
2022/08/12 23:00:05;;;;;;;;;;;16.50;99.90;;;15.63;88.26;95664.00;10376112;28;1910;-70
2022/08/12 23:05:28;;;;;;;;;;;16.50;99.90;;;15.60;89.26;95653.75;10385107;28;1816;-71
2022/08/12 23:10:50;;;;;;;;;;;16.50;99.90;;;15.62;88.74;95656.97;10372625;28;1812;-70
2022/08/12 23:15:58;;;;;;;;;;;16.40;99.90;;;15.54;89.02;95659.59;10382875;28;1821;-70
2022/08/12 23:21:01;;;;;;;;;;;16.60;99.90;;;15.55;88.25;95639.53;10389509;28;1942;-71
2022/08/12 23:26:05;;;;;;;;;;;16.40;99.90;;;15.56;87.62;95650.06;10387798;28;1785;-72
2022/08/12 23:31:10;;;;;;;;;;;16.40;99.90;;;15.51;88.23;95650.16;10392185;28;1824;-71
2022/08/12 23:36:15;;;;;;;;;;;16.40;99.90;;;15.51;87.85;95644.75;10392760;28;1857;-71
2022/08/12 23:41:31;;;;;;;;;;;16.40;99.90;;;15.44;87.86;95636.25;10391736;28;1910;-72
2022/08/12 23:46:58;;;;;;;;;;;16.30;99.90;;;15.36;88.60;95645.13;10394589;28;1836;-71
2022/08/12 23:52:05;;;;;;;;;;;16.30;99.90;;;15.23;89.16;95644.06;10375247;28;1748;-72
2022/08/12 23:57:12;;;;;;;;;;;16.10;99.90;;;15.12;89.81;95639.97;10369952;28;1841;-71
